createdAt,value
2023-01-20T00:01:59.914Z,36.62
2023-01-20T00:04:27.995Z,36.39
2023-01-20T00:06:56.187Z,36.47
2023-01-20T00:09:24.261Z,35.98
2023-01-20T00:11:52.339Z,36.63
2023-01-20T00:14:21.125Z,36.80
2023-01-20T00:16:49.307Z,36.44
2023-01-20T00:19:18.767Z,36.03
2023-01-20T00:21:46.923Z,36.41
2023-01-20T00:24:15.266Z,36.69
2023-01-20T00:26:43.449Z,36.32
2023-01-20T00:29:11.627Z,36.20
2023-01-20T00:31:39.860Z,36.60
2023-01-20T00:34:08.032Z,36.33
2023-01-20T00:36:37.546Z,36.10
2023-01-20T00:39:06.002Z,36.50
2023-01-20T00:41:34.275Z,36.02
2023-01-20T00:44:02.387Z,36.14
2023-01-20T00:46:30.558Z,36.44
2023-01-20T00:48:58.884Z,36.08
2023-01-20T00:51:27.076Z,36.43
2023-01-20T00:53:56.764Z,36.60
2023-01-20T00:56:24.877Z,36.52
2023-01-20T00:58:55.167Z,36.57
2023-01-20T01:01:23.449Z,36.14
2023-01-20T01:03:54.167Z,36.00
2023-01-20T01:06:23.693Z,36.21
2023-01-20T01:08:51.860Z,35.91
2023-01-20T01:11:21.267Z,36.00
2023-01-20T01:13:49.409Z,35.95
2023-01-20T01:16:17.564Z,36.63
2023-01-20T01:18:45.756Z,35.98
2023-01-20T01:21:15.472Z,36.68
2023-01-20T01:23:43.624Z,36.09
2023-01-20T01:26:11.859Z,35.94
2023-01-20T01:28:41.611Z,36.37
2023-01-20T01:31:09.747Z,36.17
2023-01-20T01:33:37.861Z,36.14
2023-01-20T01:36:08.562Z,36.13
2023-01-20T01:38:36.753Z,36.52
2023-01-20T01:41:04.820Z,36.70
2023-01-20T01:43:33.685Z,36.14
2023-01-20T01:46:03.213Z,36.53
2023-01-20T01:48:32.958Z,36.66
2023-01-20T01:51:03.089Z,35.85
2023-01-20T01:53:31.252Z,36.12
2023-01-20T01:56:00.442Z,35.39
2023-01-20T01:58:29.295Z,35.45
2023-01-20T02:00:57.411Z,35.95
2023-01-20T02:03:27.544Z,36.13
2023-01-20T02:05:55.656Z,36.07
2023-01-20T02:08:23.788Z,36.07
2023-01-20T02:10:51.862Z,35.77
2023-01-20T02:13:19.999Z,36.18
2023-01-20T02:15:51.203Z,36.36
2023-01-20T02:18:40.154Z,35.95
2023-01-20T02:21:27.831Z,35.79
2023-01-20T02:24:31.939Z,36.34
2023-01-20T02:27:03.672Z,35.96
2023-01-20T02:29:46.176Z,36.19
2023-01-20T02:32:33.136Z,36.04
2023-01-20T02:35:03.612Z,36.01
2023-01-20T02:37:33.560Z,36.09
2023-01-20T02:40:08.720Z,36.17
2023-01-20T02:42:39.608Z,35.88
2023-01-20T02:45:10.507Z,36.37
2023-01-20T02:47:42.670Z,36.08
2023-01-20T02:50:22.207Z,36.02
2023-01-20T02:52:52.139Z,35.94
2023-01-20T02:55:24.043Z,35.87
2023-01-20T02:57:55.223Z,35.84
2023-01-20T03:00:26.397Z,36.47
2023-01-20T03:02:56.338Z,36.37
2023-01-20T03:05:26.010Z,36.47
2023-01-20T03:07:54.360Z,36.17
2023-01-20T03:10:23.847Z,36.46
2023-01-20T03:12:52.995Z,36.41
2023-01-20T03:15:23.151Z,35.84
2023-01-20T03:17:51.378Z,35.89
2023-01-20T03:20:21.005Z,36.20
2023-01-20T03:22:49.160Z,35.79
2023-01-20T03:25:17.348Z,35.93
2023-01-20T03:27:45.719Z,36.34
2023-01-20T03:30:14.992Z,36.41
2023-01-20T03:32:43.622Z,36.39
2023-01-20T03:35:11.853Z,36.50
2023-01-20T03:37:41.420Z,36.39
2023-01-20T03:40:10.770Z,36.26
2023-01-20T03:42:40.848Z,35.93
2023-01-20T03:45:10.987Z,36.22
2023-01-20T03:47:49.779Z,35.83
2023-01-20T03:50:24.039Z,36.08
2023-01-20T03:52:55.396Z,36.40
2023-01-20T03:55:24.968Z,36.12
2023-01-20T03:57:55.605Z,36.45
2023-01-20T04:00:24.209Z,35.80
2023-01-20T04:02:52.326Z,35.98
2023-01-20T04:05:20.596Z,36.42
2023-01-20T04:07:48.767Z,36.08
2023-01-20T04:10:18.713Z,35.69
2023-01-20T04:12:46.914Z,36.35
2023-01-20T04:15:15.212Z,36.29
2023-01-20T04:17:43.745Z,36.53
2023-01-20T04:20:12.416Z,35.93
2023-01-20T04:22:43.457Z,35.73
2023-01-20T04:25:15.291Z,36.13
2023-01-20T04:27:45.048Z,36.08
2023-01-20T04:30:14.311Z,36.21
2023-01-20T04:32:42.449Z,35.75
2023-01-20T04:35:11.621Z,36.18
2023-01-20T04:37:39.854Z,36.07
2023-01-20T04:40:09.191Z,35.34
2023-01-20T04:42:37.479Z,35.54
2023-01-20T04:45:08.858Z,35.55
2023-01-20T04:47:37.060Z,35.14
2023-01-20T04:50:05.613Z,35.39
2023-01-20T04:52:33.830Z,35.63
2023-01-20T04:55:01.880Z,36.21
2023-01-20T04:57:30.058Z,35.90
2023-01-20T04:59:58.211Z,36.18
2023-01-20T05:02:27.700Z,36.22
2023-01-20T05:04:55.883Z,35.89
2023-01-20T05:07:23.992Z,36.28
2023-01-20T05:09:52.123Z,36.30
2023-01-20T05:12:20.211Z,36.19
2023-01-20T05:14:48.405Z,35.60
2023-01-20T05:17:16.618Z,36.07
2023-01-20T05:19:46.145Z,35.95
2023-01-20T05:22:14.320Z,36.25
2023-01-20T05:24:42.696Z,36.25
2023-01-20T05:27:10.868Z,36.23
2023-01-20T05:29:38.941Z,36.04
2023-01-20T05:32:07.175Z,35.61
2023-01-20T05:34:35.346Z,35.69
2023-01-20T05:37:04.831Z,35.70
2023-01-20T05:39:33.025Z,36.05
2023-01-20T05:42:02.128Z,36.32
2023-01-20T05:44:30.354Z,36.07
2023-01-20T05:46:58.418Z,36.15
2023-01-20T05:49:26.643Z,35.86
2023-01-20T05:51:55.011Z,36.00
2023-01-20T05:54:24.667Z,35.75
2023-01-20T05:56:52.833Z,35.51
2023-01-20T05:59:21.030Z,35.45
2023-01-20T06:01:49.374Z,35.37
2023-01-20T06:04:17.452Z,35.76
2023-01-20T06:06:45.627Z,36.14
2023-01-20T06:09:13.714Z,35.39
2023-01-20T06:11:43.288Z,35.68
2023-01-20T06:14:11.396Z,35.82
2023-01-20T06:16:39.614Z,35.66
2023-01-20T06:19:07.744Z,35.29
2023-01-20T06:21:36.033Z,35.36
2023-01-20T06:24:04.128Z,35.74
2023-01-20T06:26:32.304Z,35.34
2023-01-20T06:29:01.963Z,36.00
2023-01-20T06:31:30.091Z,36.03
2023-01-20T06:33:58.298Z,35.35
2023-01-20T06:36:26.426Z,35.92
2023-01-20T06:38:54.591Z,35.66
2023-01-20T06:41:22.721Z,35.83
2023-01-20T06:43:52.052Z,35.71
2023-01-20T06:46:22.470Z,36.07
2023-01-20T06:48:50.816Z,35.38
2023-01-20T06:51:20.069Z,35.26
2023-01-20T06:53:48.458Z,35.80
2023-01-20T06:56:17.151Z,35.81
2023-01-20T06:58:45.372Z,35.92
2023-01-20T07:01:14.309Z,35.35
2023-01-20T07:03:44.491Z,35.84
2023-01-20T07:06:17.009Z,36.04
2023-01-20T07:08:45.270Z,35.79
2023-01-20T07:11:13.450Z,36.22
2023-01-20T07:13:41.584Z,36.11
2023-01-20T07:16:12.025Z,35.88
2023-01-20T07:18:41.235Z,36.42
2023-01-20T07:21:10.875Z,36.38
2023-01-20T07:23:39.006Z,36.39
2023-01-20T07:26:08.110Z,35.95
2023-01-20T07:28:36.406Z,36.26
2023-01-20T07:31:05.078Z,35.29
2023-01-20T07:33:33.232Z,35.94
2023-01-20T07:36:01.989Z,35.82
2023-01-20T07:38:31.507Z,36.19
2023-01-20T07:40:59.772Z,35.90
2023-01-20T07:43:28.064Z,36.11
2023-01-20T07:45:57.059Z,35.88
2023-01-20T07:48:25.749Z,35.56
2023-01-20T07:51:01.950Z,35.61
2023-01-20T07:53:31.593Z,35.99
2023-01-20T07:56:01.746Z,36.51
2023-01-20T07:58:29.996Z,36.21
2023-01-20T08:00:58.226Z,36.52
2023-01-20T08:03:27.480Z,36.35
2023-01-20T08:05:55.738Z,35.82
2023-01-20T08:08:24.560Z,36.35
2023-01-20T08:10:56.016Z,36.75
2023-01-20T08:13:24.220Z,36.10
2023-01-20T08:15:52.280Z,36.87
2023-01-20T08:18:20.416Z,36.30
2023-01-20T08:20:48.512Z,36.73
2023-01-20T08:23:16.731Z,36.58
2023-01-20T08:25:44.891Z,36.45
2023-01-20T08:28:14.374Z,36.29
2023-01-20T08:30:42.841Z,35.96
2023-01-20T08:33:11.343Z,36.22
2023-01-20T08:35:39.527Z,35.95
2023-01-20T08:38:07.759Z,35.99
2023-01-20T08:40:35.887Z,36.01
2023-01-20T08:43:04.061Z,35.93
2023-01-20T08:45:33.622Z,36.28
2023-01-20T08:48:01.732Z,35.63
2023-01-20T08:50:29.882Z,36.52
2023-01-20T08:52:57.997Z,35.57
2023-01-20T08:55:26.075Z,35.44
2023-01-20T08:57:54.727Z,35.50
2023-01-20T09:00:23.464Z,36.05
2023-01-20T09:02:53.054Z,35.30
2023-01-20T09:05:22.404Z,35.51
2023-01-20T09:07:50.442Z,35.69
2023-01-20T09:10:19.973Z,35.32
2023-01-20T09:12:48.717Z,35.05
2023-01-20T09:15:17.264Z,35.63
2023-01-20T09:17:45.366Z,35.20
2023-01-20T09:20:15.631Z,35.61
2023-01-20T09:22:43.765Z,35.71
2023-01-20T09:25:11.910Z,35.56
2023-01-20T09:27:40.209Z,35.21
2023-01-20T09:30:09.741Z,35.50
2023-01-20T09:32:37.849Z,35.10
2023-01-20T09:35:07.037Z,35.20
2023-01-20T09:37:54.207Z,35.19
2023-01-20T09:40:41.759Z,35.94
2023-01-20T09:43:36.891Z,35.20
2023-01-20T09:46:09.678Z,35.87
2023-01-20T09:48:56.809Z,35.64
2023-01-20T09:51:43.921Z,35.89
2023-01-20T09:54:15.552Z,35.04
2023-01-20T09:56:47.063Z,35.63
2023-01-20T09:59:17.026Z,35.20
2023-01-20T10:01:46.811Z,35.24
2023-01-20T10:04:17.340Z,35.49
2023-01-20T10:06:46.598Z,35.77
2023-01-20T10:09:21.357Z,35.86
2023-01-20T10:11:50.584Z,35.68
2023-01-20T10:14:22.092Z,35.53
2023-01-20T10:16:52.132Z,35.28
2023-01-20T10:19:27.342Z,35.42
2023-01-20T10:21:58.275Z,35.49
2023-01-20T10:24:30.479Z,36.08
2023-01-20T10:27:00.490Z,36.26
2023-01-20T10:29:30.708Z,36.12
2023-01-20T10:32:00.782Z,35.49
2023-01-20T10:34:31.923Z,36.45
2023-01-20T10:37:03.775Z,35.98
2023-01-20T10:39:36.647Z,36.18
2023-01-20T10:42:05.892Z,36.42
2023-01-20T10:44:35.044Z,36.63
2023-01-20T10:47:13.648Z,35.91
2023-01-20T10:49:53.202Z,36.03
2023-01-20T10:52:29.158Z,36.46
2023-01-20T10:55:02.584Z,35.92
2023-01-20T10:57:31.014Z,36.57
2023-01-20T11:00:00.964Z,36.50
2023-01-20T11:02:30.452Z,36.06
2023-01-20T11:05:00.180Z,36.09
2023-01-20T11:07:28.577Z,36.04
2023-01-20T11:09:56.733Z,36.17
2023-01-20T11:12:27.084Z,36.26
2023-01-20T11:14:55.646Z,35.97
2023-01-20T11:17:23.779Z,36.44
2023-01-20T11:19:53.152Z,35.94
2023-01-20T11:22:27.233Z,35.55
2023-01-20T11:24:55.843Z,35.94
2023-01-20T11:27:25.110Z,36.13
2023-01-20T11:29:58.123Z,35.62
2023-01-20T11:32:28.621Z,35.52
2023-01-20T11:34:56.911Z,35.65
2023-01-20T11:37:26.663Z,35.85
2023-01-20T11:40:07.663Z,35.72
2023-01-20T11:42:43.887Z,36.01
2023-01-20T11:45:26.361Z,35.51
2023-01-20T11:48:01.951Z,35.86
2023-01-20T11:50:32.959Z,35.43
2023-01-20T11:53:17.892Z,35.80
2023-01-20T11:55:48.189Z,35.91
2023-01-20T11:58:18.658Z,35.97
2023-01-20T12:00:48.396Z,35.80
2023-01-20T12:03:53.274Z,35.55
2023-01-20T12:06:23.856Z,35.35
2023-01-20T12:08:52.610Z,35.50
2023-01-20T12:11:24.807Z,35.49
2023-01-20T12:14:20.356Z,35.39
2023-01-20T12:17:04.753Z,35.89
2023-01-20T12:19:37.205Z,35.28
2023-01-20T12:22:10.818Z,35.91
2023-01-20T12:24:55.266Z,36.06
2023-01-20T12:27:26.963Z,35.58
2023-01-20T12:29:56.163Z,35.48
2023-01-20T12:32:25.717Z,35.84
2023-01-20T12:34:53.919Z,36.28
2023-01-20T12:37:23.922Z,35.65
2023-01-20T12:39:58.481Z,36.22
2023-01-20T12:43:02.240Z,35.69
2023-01-20T12:45:41.143Z,35.99
2023-01-20T12:48:19.117Z,35.94
2023-01-20T12:50:56.380Z,35.58
2023-01-20T12:53:34.444Z,35.63
2023-01-20T12:56:05.411Z,35.42
2023-01-20T12:58:40.781Z,35.76
2023-01-20T13:01:29.590Z,35.67
2023-01-20T13:04:18.160Z,35.76
2023-01-20T13:07:10.409Z,35.94
2023-01-20T13:09:45.191Z,35.91
2023-01-20T13:12:31.621Z,36.36
2023-01-20T13:15:01.890Z,36.25
2023-01-20T13:17:33.977Z,36.26
2023-01-20T13:20:04.867Z,35.81
2023-01-20T13:22:34.571Z,36.37
2023-01-20T13:25:04.973Z,36.20
2023-01-20T13:27:34.961Z,36.21
2023-01-20T13:30:04.560Z,35.87
2023-01-20T13:32:34.464Z,35.61
2023-01-20T13:35:06.663Z,35.46
2023-01-20T13:37:38.064Z,35.53
2023-01-20T13:40:28.156Z,36.28
2023-01-20T13:42:56.403Z,36.10
2023-01-20T13:45:26.450Z,35.89
2023-01-20T13:48:02.545Z,36.03
2023-01-20T13:50:33.748Z,35.58
2023-01-20T13:53:16.201Z,35.59
2023-01-20T13:55:54.915Z,35.57
2023-01-20T13:58:24.077Z,35.84
2023-01-20T14:00:53.002Z,35.60
2023-01-20T14:03:29.051Z,35.66
2023-01-20T14:06:00.076Z,35.55
2023-01-20T14:08:29.512Z,36.21
2023-01-20T14:11:14.284Z,35.57
2023-01-20T14:13:43.213Z,35.50
2023-01-20T14:16:19.945Z,35.94
2023-01-20T14:18:48.840Z,35.79
2023-01-20T14:21:20.196Z,36.25
2023-01-20T14:23:48.360Z,35.59
2023-01-20T14:26:21.535Z,35.58
2023-01-20T14:28:50.898Z,35.46
2023-01-20T14:31:24.165Z,35.42
2023-01-20T14:33:56.248Z,35.03
2023-01-20T14:36:26.698Z,35.53
2023-01-20T14:38:58.327Z,34.58
2023-01-20T14:41:28.537Z,34.76
2023-01-20T14:43:56.859Z,33.96
2023-01-20T14:46:25.178Z,34.15
2023-01-20T14:48:54.109Z,34.03
2023-01-20T14:51:22.502Z,34.24
2023-01-20T14:54:23.991Z,34.49
2023-01-20T14:56:53.593Z,34.13
2023-01-20T14:59:21.768Z,34.54
2023-01-20T15:01:54.657Z,34.47
2023-01-20T15:04:23.005Z,34.43
2023-01-20T15:06:55.462Z,34.29
2023-01-20T15:09:28.033Z,34.57
2023-01-20T15:12:42.673Z,34.73
2023-01-20T15:15:15.354Z,34.31
2023-01-20T15:18:19.968Z,34.59
2023-01-20T15:20:49.946Z,34.74
2023-01-20T15:23:22.531Z,34.79
2023-01-20T15:25:50.987Z,34.44
2023-01-20T15:28:25.779Z,34.34
2023-01-20T15:30:56.220Z,34.79
2023-01-20T15:33:24.870Z,34.39
2023-01-20T15:35:55.240Z,34.17
2023-01-20T15:38:23.368Z,34.18
2023-01-20T15:40:51.480Z,33.78
2023-01-20T15:43:19.774Z,34.33
2023-01-20T15:45:47.947Z,33.86
2023-01-20T15:48:18.056Z,34.10
2023-01-20T15:50:46.406Z,34.18
2023-01-20T15:53:14.593Z,34.37
2023-01-20T15:55:50.261Z,34.01
2023-01-20T15:58:23.311Z,34.57
2023-01-20T16:00:51.503Z,34.49
2023-01-20T16:03:21.015Z,34.48
2023-01-20T16:05:50.047Z,34.36
2023-01-20T16:08:18.342Z,33.95
2023-01-20T16:10:46.486Z,34.27
2023-01-20T16:13:14.711Z,34.72
2023-01-20T16:15:43.208Z,34.64
2023-01-20T16:18:15.676Z,34.78
2023-01-20T16:20:46.105Z,34.71
2023-01-20T16:23:14.530Z,34.58
2023-01-20T16:25:42.850Z,34.12
2023-01-20T16:28:18.582Z,34.11
2023-01-20T16:30:46.975Z,33.95
2023-01-20T16:33:19.071Z,33.56
2023-01-20T16:35:48.605Z,33.61
2023-01-20T16:38:17.676Z,34.20
2023-01-20T16:40:50.977Z,33.91
2023-01-20T16:43:19.401Z,33.93
2023-01-20T16:45:50.574Z,33.59
2023-01-20T16:48:18.739Z,34.08
2023-01-20T16:50:48.315Z,34.10
2023-01-20T16:53:16.917Z,33.80
2023-01-20T16:55:45.296Z,34.49
2023-01-20T16:58:13.596Z,34.33
2023-01-20T17:00:41.729Z,33.99
2023-01-20T17:03:10.060Z,33.86
2023-01-20T17:05:38.178Z,33.60
2023-01-20T17:08:07.791Z,34.23
2023-01-20T17:10:35.840Z,33.74
2023-01-20T17:13:04.003Z,33.92
2023-01-20T17:15:32.128Z,33.61
2023-01-20T17:18:00.401Z,33.98
2023-01-20T17:20:31.113Z,33.96
2023-01-20T17:22:59.335Z,34.16
2023-01-20T17:25:28.891Z,34.11
2023-01-20T17:27:57.142Z,33.54
2023-01-20T17:30:26.432Z,33.81
2023-01-20T17:32:54.882Z,34.07
2023-01-20T17:35:23.009Z,33.57
2023-01-20T17:37:51.206Z,33.81
2023-01-20T17:40:19.562Z,34.06
2023-01-20T17:42:49.195Z,33.87
2023-01-20T17:45:17.490Z,34.00
2023-01-20T17:47:45.878Z,33.61
2023-01-20T17:50:14.355Z,33.93
2023-01-20T17:52:42.669Z,33.54
2023-01-20T17:55:11.636Z,33.59
2023-01-20T17:57:39.788Z,33.87
2023-01-20T18:00:11.028Z,34.18
2023-01-20T18:02:39.453Z,34.05
2023-01-20T18:05:08.476Z,34.25
2023-01-20T18:07:36.557Z,34.32
2023-01-20T18:10:04.871Z,33.97
2023-01-20T18:12:33.065Z,34.26
2023-01-20T18:15:01.185Z,34.00
2023-01-20T18:17:34.405Z,34.42
2023-01-20T18:20:02.683Z,34.54
2023-01-20T18:22:30.966Z,34.34
2023-01-20T18:24:59.233Z,34.30
2023-01-20T18:27:27.333Z,34.61
2023-01-20T18:29:55.454Z,34.11
2023-01-20T18:32:23.518Z,34.58
2023-01-20T18:34:53.105Z,34.71
2023-01-20T18:37:21.314Z,34.35
2023-01-20T18:39:50.341Z,34.70
2023-01-20T18:42:18.522Z,35.35
2023-01-20T18:44:46.611Z,35.31
2023-01-20T18:47:14.782Z,34.78
2023-01-20T18:49:42.816Z,34.70
2023-01-20T18:52:12.432Z,34.74
2023-01-20T18:54:40.646Z,35.39
2023-01-20T18:57:09.182Z,35.46
2023-01-20T18:59:37.581Z,34.82
2023-01-20T19:02:05.684Z,35.12
2023-01-20T19:04:35.792Z,35.14
2023-01-20T19:07:03.988Z,35.39
2023-01-20T19:09:33.570Z,35.47
2023-01-20T19:12:01.733Z,35.37
2023-01-20T19:14:29.860Z,34.96
2023-01-20T19:16:58.060Z,35.14
2023-01-20T19:19:26.152Z,35.04
2023-01-20T19:21:54.301Z,35.06
2023-01-20T19:24:22.620Z,34.99
2023-01-20T19:26:52.286Z,35.05
2023-01-20T19:29:20.753Z,34.97
2023-01-20T19:31:49.247Z,35.49
2023-01-20T19:34:17.492Z,34.93
2023-01-20T19:36:45.659Z,35.32
2023-01-20T19:39:13.837Z,35.27
2023-01-20T19:41:41.974Z,35.41
2023-01-20T19:44:13.594Z,34.97
2023-01-20T19:46:41.884Z,34.63
2023-01-20T19:49:10.778Z,34.77
2023-01-20T19:51:38.932Z,35.44
2023-01-20T19:54:07.408Z,35.14
2023-01-20T19:56:35.851Z,35.07
2023-01-20T19:59:05.991Z,35.70
2023-01-20T20:01:36.266Z,35.51
2023-01-20T20:04:06.003Z,35.20
2023-01-20T20:06:35.303Z,35.44
2023-01-20T20:09:05.275Z,35.51
2023-01-20T20:11:33.387Z,35.04
2023-01-20T20:14:02.358Z,35.14
2023-01-20T20:16:31.676Z,34.90
2023-01-20T20:19:01.336Z,35.25
2023-01-20T20:21:29.569Z,35.64
2023-01-20T20:23:58.527Z,34.79
2023-01-20T20:26:27.922Z,35.50
2023-01-20T20:28:56.022Z,35.65
2023-01-20T20:31:29.347Z,35.33
2023-01-20T20:33:57.926Z,34.97
2023-01-20T20:36:29.543Z,35.50
2023-01-20T20:38:58.846Z,35.30
2023-01-20T20:41:29.110Z,35.39
2023-01-20T20:43:57.372Z,35.19
2023-01-20T20:46:26.053Z,35.41
2023-01-20T20:48:54.629Z,34.99
2023-01-20T20:51:23.768Z,35.18
2023-01-20T20:53:54.398Z,35.60
2023-01-20T20:56:22.574Z,35.03
2023-01-20T20:59:00.948Z,35.02
2023-01-20T21:01:30.148Z,35.50
2023-01-20T21:04:00.475Z,35.41
2023-01-20T21:06:28.835Z,35.62
2023-01-20T21:08:58.748Z,35.46
2023-01-20T21:11:26.916Z,34.91
2023-01-20T21:13:55.200Z,35.48
2023-01-20T21:16:23.803Z,35.27
2023-01-20T21:18:52.372Z,35.48
2023-01-20T21:21:20.850Z,34.87
2023-01-20T21:23:49.748Z,35.36
2023-01-20T21:26:19.460Z,35.30
2023-01-20T21:28:49.355Z,35.29
2023-01-20T21:31:19.254Z,35.21
2023-01-20T21:33:49.161Z,34.86
2023-01-20T21:36:17.323Z,34.86
2023-01-20T21:38:46.644Z,35.46
2023-01-20T21:41:15.409Z,35.05
2023-01-20T21:44:03.342Z,35.20
2023-01-20T21:46:32.461Z,35.24
2023-01-20T21:49:17.842Z,35.58
2023-01-20T21:52:03.301Z,34.97
2023-01-20T21:54:31.825Z,35.46
2023-01-20T21:57:00.204Z,35.40
2023-01-20T21:59:29.765Z,35.70
2023-01-20T22:01:57.960Z,35.34
2023-01-20T22:04:26.079Z,34.97
2023-01-20T22:06:54.212Z,34.99
2023-01-20T22:09:22.287Z,35.01
2023-01-20T22:11:50.572Z,35.77
2023-01-20T22:14:18.690Z,35.55
2023-01-20T22:16:48.226Z,35.41
2023-01-20T22:19:16.579Z,35.66
2023-01-20T22:21:44.686Z,35.18
2023-01-20T22:24:12.820Z,35.12
2023-01-20T22:26:40.940Z,35.56
2023-01-20T22:29:09.513Z,35.41
2023-01-20T22:31:37.639Z,35.31
2023-01-20T22:34:07.586Z,35.83
2023-01-20T22:36:35.877Z,35.10
2023-01-20T22:39:04.256Z,35.11
2023-01-20T22:41:32.422Z,35.97
2023-01-20T22:44:00.551Z,35.29
2023-01-20T22:46:29.066Z,35.12
2023-01-20T22:48:57.222Z,35.65
2023-01-20T22:51:27.942Z,35.70
2023-01-20T22:53:56.200Z,35.38
2023-01-20T22:56:25.106Z,35.85
2023-01-20T22:58:53.339Z,35.52
2023-01-20T23:01:22.306Z,35.65
2023-01-20T23:03:53.993Z,35.72
2023-01-20T23:06:22.207Z,35.18
2023-01-20T23:08:51.713Z,35.92
2023-01-20T23:11:20.891Z,35.45
2023-01-20T23:13:49.035Z,35.34
2023-01-20T23:16:18.035Z,35.93
2023-01-20T23:18:46.181Z,35.38
2023-01-20T23:21:14.429Z,35.19
2023-01-20T23:23:42.573Z,35.68
2023-01-20T23:26:14.683Z,35.44
2023-01-20T23:28:43.124Z,35.46
2023-01-20T23:31:12.293Z,36.02
2023-01-20T23:33:43.235Z,35.28
2023-01-20T23:36:13.105Z,35.28
2023-01-20T23:38:41.289Z,35.97
2023-01-20T23:41:09.344Z,35.20
2023-01-20T23:43:38.871Z,35.82
2023-01-20T23:46:07.158Z,36.00
2023-01-20T23:48:35.449Z,36.22
2023-01-20T23:51:04.007Z,35.38
2023-01-20T23:53:32.771Z,35.34
2023-01-20T23:56:01.573Z,35.32
2023-01-20T23:58:29.807Z,35.79
